sensor_id;sensor_type;location;lat;lon;timestamp;temperature;humidity
18305;DHT22;9278;52.156;21.048;2023-04-01T00:01:07;10.70;99.90
18305;DHT22;9278;52.156;21.048;2023-04-01T00:03:35;10.70;99.90
18305;DHT22;9278;52.156;21.048;2023-04-01T00:08:33;10.60;99.90
18305;DHT22;9278;52.156;21.048;2023-04-01T00:11:01;10.30;99.90
18305;DHT22;9278;52.156;21.048;2023-04-01T00:13:30;10.40;99.90
18305;DHT22;9278;52.156;21.048;2023-04-01T00:16:00;10.40;99.90
18305;DHT22;9278;52.156;21.048;2023-04-01T00:18:35;10.30;99.90
18305;DHT22;9278;52.156;21.048;2023-04-01T00:21:04;10.20;99.90
18305;DHT22;9278;52.156;21.048;2023-04-01T00:23:32;10.20;99.90
18305;DHT22;9278;52.156;21.048;2023-04-01T00:26:01;10.30;99.90
18305;DHT22;9278;52.156;21.048;2023-04-01T00:28:30;10.30;99.90
18305;DHT22;9278;52.156;21.048;2023-04-01T00:30:59;10.20;99.90
18305;DHT22;9278;52.156;21.048;2023-04-01T00:33:31;10.10;99.90
18305;DHT22;9278;52.156;21.048;2023-04-01T00:36:06;10.10;99.90
18305;DHT22;9278;52.156;21.048;2023-04-01T00:38:35;10.10;99.90
18305;DHT22;9278;52.156;21.048;2023-04-01T00:41:05;10.20;99.90
18305;DHT22;9278;52.156;21.048;2023-04-01T00:46:04;10.20;99.90
18305;DHT22;9278;52.156;21.048;2023-04-01T00:48:34;10.40;99.90
18305;DHT22;9278;52.156;21.048;2023-04-01T00:51:06;10.40;99.90
18305;DHT22;9278;52.156;21.048;2023-04-01T00:53:39;10.40;99.90
18305;DHT22;9278;52.156;21.048;2023-04-01T00:56:11;10.30;99.90
18305;DHT22;9278;52.156;21.048;2023-04-01T00:58:44;10.40;99.90
18305;DHT22;9278;52.156;21.048;2023-04-01T01:01:15;10.40;99.90
18305;DHT22;9278;52.156;21.048;2023-04-01T01:03:44;10.00;99.90
18305;DHT22;9278;52.156;21.048;2023-04-01T01:06:24;10.30;99.90
18305;DHT22;9278;52.156;21.048;2023-04-01T01:09:19;10.40;99.90
18305;DHT22;9278;52.156;21.048;2023-04-01T01:11:55;10.30;99.90
18305;DHT22;9278;52.156;21.048;2023-04-01T01:14:34;10.30;99.90
18305;DHT22;9278;52.156;21.048;2023-04-01T01:17:13;10.20;99.90
18305;DHT22;9278;52.156;21.048;2023-04-01T01:20:18;10.20;99.90
18305;DHT22;9278;52.156;21.048;2023-04-01T01:23:06;10.30;99.90
18305;DHT22;9278;52.156;21.048;2023-04-01T01:25:41;10.10;99.90
18305;DHT22;9278;52.156;21.048;2023-04-01T01:28:26;10.00;99.90
18305;DHT22;9278;52.156;21.048;2023-04-01T01:31:02;9.90;99.90
18305;DHT22;9278;52.156;21.048;2023-04-01T01:33:50;9.90;99.90
18305;DHT22;9278;52.156;21.048;2023-04-01T01:36:23;10.00;99.90
18305;DHT22;9278;52.156;21.048;2023-04-01T01:38:55;10.00;99.90
18305;DHT22;9278;52.156;21.048;2023-04-01T01:41:25;10.10;99.90
18305;DHT22;9278;52.156;21.048;2023-04-01T01:43:56;10.10;99.90
18305;DHT22;9278;52.156;21.048;2023-04-01T01:46:28;10.20;99.90
18305;DHT22;9278;52.156;21.048;2023-04-01T01:48:58;10.30;99.90
18305;DHT22;9278;52.156;21.048;2023-04-01T01:51:29;10.30;99.90
18305;DHT22;9278;52.156;21.048;2023-04-01T01:54:00;10.30;99.90
18305;DHT22;9278;52.156;21.048;2023-04-01T01:56:30;10.40;99.90
18305;DHT22;9278;52.156;21.048;2023-04-01T01:59:03;10.40;99.90
18305;DHT22;9278;52.156;21.048;2023-04-01T02:01:38;10.20;99.90
18305;DHT22;9278;52.156;21.048;2023-04-01T02:04:13;10.20;99.90
18305;DHT22;9278;52.156;21.048;2023-04-01T02:06:47;10.30;99.90
18305;DHT22;9278;52.156;21.048;2023-04-01T02:09:19;10.40;99.90
18305;DHT22;9278;52.156;21.048;2023-04-01T02:11:50;10.00;99.90
18305;DHT22;9278;52.156;21.048;2023-04-01T02:14:22;10.30;99.90
18305;DHT22;9278;52.156;21.048;2023-04-01T02:16:56;10.30;99.90
18305;DHT22;9278;52.156;21.048;2023-04-01T02:19:27;10.40;99.90
18305;DHT22;9278;52.156;21.048;2023-04-01T02:22:02;10.20;99.90
18305;DHT22;9278;52.156;21.048;2023-04-01T02:24:35;9.80;99.90
18305;DHT22;9278;52.156;21.048;2023-04-01T02:27:04;9.90;99.90
18305;DHT22;9278;52.156;21.048;2023-04-01T02:29:33;9.90;1.00
18305;DHT22;9278;52.156;21.048;2023-04-01T02:34:35;9.80;1.00
18305;DHT22;9278;52.156;21.048;2023-04-01T02:37:05;9.50;99.90
18305;DHT22;9278;52.156;21.048;2023-04-01T02:39:33;9.70;99.90
18305;DHT22;9278;52.156;21.048;2023-04-01T02:42:01;9.40;99.90
18305;DHT22;9278;52.156;21.048;2023-04-01T02:44:30;9.20;99.90
18305;DHT22;9278;52.156;21.048;2023-04-01T02:46:59;8.70;99.90
18305;DHT22;9278;52.156;21.048;2023-04-01T02:49:27;8.90;99.90
18305;DHT22;9278;52.156;21.048;2023-04-01T02:51:55;8.90;99.90
18305;DHT22;9278;52.156;21.048;2023-04-01T02:54:25;8.90;99.90
18305;DHT22;9278;52.156;21.048;2023-04-01T03:01:51;8.80;99.90
18305;DHT22;9278;52.156;21.048;2023-04-01T03:04:19;8.80;99.90
18305;DHT22;9278;52.156;21.048;2023-04-01T03:06:47;8.80;99.90
18305;DHT22;9278;52.156;21.048;2023-04-01T03:09:16;8.80;99.90
18305;DHT22;9278;52.156;21.048;2023-04-01T03:11:46;9.10;99.90
18305;DHT22;9278;52.156;21.048;2023-04-01T03:14:14;9.20;99.90
18305;DHT22;9278;52.156;21.048;2023-04-01T03:16:42;9.30;99.90
18305;DHT22;9278;52.156;21.048;2023-04-01T03:19:11;9.30;99.90
18305;DHT22;9278;52.156;21.048;2023-04-01T03:21:39;9.40;99.90
18305;DHT22;9278;52.156;21.048;2023-04-01T03:24:08;9.50;99.90
18305;DHT22;9278;52.156;21.048;2023-04-01T03:26:36;9.40;99.90
18305;DHT22;9278;52.156;21.048;2023-04-01T03:29:07;9.30;99.90
18305;DHT22;9278;52.156;21.048;2023-04-01T03:31:35;9.10;99.90
18305;DHT22;9278;52.156;21.048;2023-04-01T03:34:03;8.80;99.90
18305;DHT22;9278;52.156;21.048;2023-04-01T03:36:32;8.70;99.90
18305;DHT22;9278;52.156;21.048;2023-04-01T03:39:00;8.60;99.90
18305;DHT22;9278;52.156;21.048;2023-04-01T03:41:38;8.60;99.90
18305;DHT22;9278;52.156;21.048;2023-04-01T03:44:08;8.30;99.90
18305;DHT22;9278;52.156;21.048;2023-04-01T03:46:36;8.70;99.90
18305;DHT22;9278;52.156;21.048;2023-04-01T03:49:07;8.80;99.90
18305;DHT22;9278;52.156;21.048;2023-04-01T03:51:38;8.90;99.90
18305;DHT22;9278;52.156;21.048;2023-04-01T03:54:07;9.10;99.90
18305;DHT22;9278;52.156;21.048;2023-04-01T03:56:36;9.00;99.90
18305;DHT22;9278;52.156;21.048;2023-04-01T03:59:06;9.20;99.90
18305;DHT22;9278;52.156;21.048;2023-04-01T04:01:36;9.20;99.90
18305;DHT22;9278;52.156;21.048;2023-04-01T04:04:05;9.30;99.90
18305;DHT22;9278;52.156;21.048;2023-04-01T04:06:33;9.30;99.90
18305;DHT22;9278;52.156;21.048;2023-04-01T04:09:02;9.30;99.90
18305;DHT22;9278;52.156;21.048;2023-04-01T04:11:31;9.30;99.90
18305;DHT22;9278;52.156;21.048;2023-04-01T04:14:00;9.40;99.90
18305;DHT22;9278;52.156;21.048;2023-04-01T04:16:29;9.50;99.90
18305;DHT22;9278;52.156;21.048;2023-04-01T04:19:02;9.50;99.90
18305;DHT22;9278;52.156;21.048;2023-04-01T04:21:30;9.40;99.90
18305;DHT22;9278;52.156;21.048;2023-04-01T04:23:59;9.50;99.90
18305;DHT22;9278;52.156;21.048;2023-04-01T04:26:41;9.50;99.90
18305;DHT22;9278;52.156;21.048;2023-04-01T04:29:09;9.50;99.90
18305;DHT22;9278;52.156;21.048;2023-04-01T04:31:38;9.50;99.90
18305;DHT22;9278;52.156;21.048;2023-04-01T04:34:07;9.50;99.90
18305;DHT22;9278;52.156;21.048;2023-04-01T04:36:36;9.50;99.90
18305;DHT22;9278;52.156;21.048;2023-04-01T04:39:04;9.50;99.90
18305;DHT22;9278;52.156;21.048;2023-04-01T04:41:37;9.50;99.90
18305;DHT22;9278;52.156;21.048;2023-04-01T04:44:05;9.70;99.90
18305;DHT22;9278;52.156;21.048;2023-04-01T04:46:33;9.70;99.90
18305;DHT22;9278;52.156;21.048;2023-04-01T04:49:15;9.90;99.90
18305;DHT22;9278;52.156;21.048;2023-04-01T04:51:43;9.90;99.90
18305;DHT22;9278;52.156;21.048;2023-04-01T04:54:14;9.90;99.90
18305;DHT22;9278;52.156;21.048;2023-04-01T04:56:51;10.00;99.90
18305;DHT22;9278;52.156;21.048;2023-04-01T04:59:21;9.80;99.90
18305;DHT22;9278;52.156;21.048;2023-04-01T05:02:01;9.90;99.90
18305;DHT22;9278;52.156;21.048;2023-04-01T05:04:34;9.90;99.90
18305;DHT22;9278;52.156;21.048;2023-04-01T05:09:33;9.60;99.90
18305;DHT22;9278;52.156;21.048;2023-04-01T05:12:02;9.50;99.90
18305;DHT22;9278;52.156;21.048;2023-04-01T05:14:49;9.50;99.90
18305;DHT22;9278;52.156;21.048;2023-04-01T05:17:17;9.50;99.90
18305;DHT22;9278;52.156;21.048;2023-04-01T05:19:47;9.80;99.90
18305;DHT22;9278;52.156;21.048;2023-04-01T05:24:44;9.90;99.90
18305;DHT22;9278;52.156;21.048;2023-04-01T05:27:12;9.90;99.90
18305;DHT22;9278;52.156;21.048;2023-04-01T05:29:42;10.10;99.90
18305;DHT22;9278;52.156;21.048;2023-04-01T05:32:27;9.90;99.90
18305;DHT22;9278;52.156;21.048;2023-04-01T05:34:57;10.00;99.90
18305;DHT22;9278;52.156;21.048;2023-04-01T05:37:25;10.50;99.90
18305;DHT22;9278;52.156;21.048;2023-04-01T05:39:54;10.30;99.90
18305;DHT22;9278;52.156;21.048;2023-04-01T05:42:22;10.80;99.90
18305;DHT22;9278;52.156;21.048;2023-04-01T05:44:51;10.70;99.90
18305;DHT22;9278;52.156;21.048;2023-04-01T05:47:48;10.70;99.90
18305;DHT22;9278;52.156;21.048;2023-04-01T05:50:19;10.40;99.90
18305;DHT22;9278;52.156;21.048;2023-04-01T05:52:47;10.40;99.90
18305;DHT22;9278;52.156;21.048;2023-04-01T05:55:15;10.30;99.90
18305;DHT22;9278;52.156;21.048;2023-04-01T05:57:45;10.40;99.90
18305;DHT22;9278;52.156;21.048;2023-04-01T06:00:16;10.70;99.90
18305;DHT22;9278;52.156;21.048;2023-04-01T06:05:20;10.60;99.90
18305;DHT22;9278;52.156;21.048;2023-04-01T06:07:50;10.70;99.90
18305;DHT22;9278;52.156;21.048;2023-04-01T06:10:20;10.90;99.90
18305;DHT22;9278;52.156;21.048;2023-04-01T06:12:59;10.80;99.90
18305;DHT22;9278;52.156;21.048;2023-04-01T06:15:40;10.70;99.90
18305;DHT22;9278;52.156;21.048;2023-04-01T06:18:37;11.00;99.90
18305;DHT22;9278;52.156;21.048;2023-04-01T06:21:22;10.80;99.90
18305;DHT22;9278;52.156;21.048;2023-04-01T06:24:13;10.70;99.90
18305;DHT22;9278;52.156;21.048;2023-04-01T06:26:48;10.80;99.90
18305;DHT22;9278;52.156;21.048;2023-04-01T06:29:38;10.80;99.90
18305;DHT22;9278;52.156;21.048;2023-04-01T06:32:22;10.70;99.90
18305;DHT22;9278;52.156;21.048;2023-04-01T06:35:28;11.10;99.90
18305;DHT22;9278;52.156;21.048;2023-04-01T06:38:22;11.30;99.90
18305;DHT22;9278;52.156;21.048;2023-04-01T06:44:22;11.50;99.90
18305;DHT22;9278;52.156;21.048;2023-04-01T06:47:38;11.30;99.90
18305;DHT22;9278;52.156;21.048;2023-04-01T06:50:36;11.40;99.90
18305;DHT22;9278;52.156;21.048;2023-04-01T06:53:35;11.30;99.90
18305;DHT22;9278;52.156;21.048;2023-04-01T06:56:28;11.60;99.90
18305;DHT22;9278;52.156;21.048;2023-04-01T06:59:04;11.50;99.90
18305;DHT22;9278;52.156;21.048;2023-04-01T07:01:35;12.60;99.90
18305;DHT22;9278;52.156;21.048;2023-04-01T07:04:09;12.40;99.90
18305;DHT22;9278;52.156;21.048;2023-04-01T07:06:42;12.30;99.90
18305;DHT22;9278;52.156;21.048;2023-04-01T07:09:18;12.30;99.90
18305;DHT22;9278;52.156;21.048;2023-04-01T07:12:10;12.40;99.90
18305;DHT22;9278;52.156;21.048;2023-04-01T07:15:03;12.20;99.90
18305;DHT22;9278;52.156;21.048;2023-04-01T07:17:36;11.60;99.90
18305;DHT22;9278;52.156;21.048;2023-04-01T07:20:16;11.30;99.90
18305;DHT22;9278;52.156;21.048;2023-04-01T07:22:47;11.40;99.90
18305;DHT22;9278;52.156;21.048;2023-04-01T07:25:44;11.10;99.90
18305;DHT22;9278;52.156;21.048;2023-04-01T07:28:34;10.90;99.90
18305;DHT22;9278;52.156;21.048;2023-04-01T07:31:20;11.00;99.90
18305;DHT22;9278;52.156;21.048;2023-04-01T07:33:57;11.20;99.90
18305;DHT22;9278;52.156;21.048;2023-04-01T07:36:33;11.30;99.90
18305;DHT22;9278;52.156;21.048;2023-04-01T07:39:11;11.30;99.90
18305;DHT22;9278;52.156;21.048;2023-04-01T07:42:16;11.40;99.90
18305;DHT22;9278;52.156;21.048;2023-04-01T07:44:54;11.60;99.90
18305;DHT22;9278;52.156;21.048;2023-04-01T07:47:38;12.40;99.90
18305;DHT22;9278;52.156;21.048;2023-04-01T07:50:13;12.30;99.90
18305;DHT22;9278;52.156;21.048;2023-04-01T07:52:51;12.60;99.90
18305;DHT22;9278;52.156;21.048;2023-04-01T07:55:28;11.80;99.90
18305;DHT22;9278;52.156;21.048;2023-04-01T07:58:04;12.10;99.90
18305;DHT22;9278;52.156;21.048;2023-04-01T08:00:47;12.40;99.90
18305;DHT22;9278;52.156;21.048;2023-04-01T08:03:37;12.30;99.90
18305;DHT22;9278;52.156;21.048;2023-04-01T08:06:13;12.00;99.90
18305;DHT22;9278;52.156;21.048;2023-04-01T08:08:52;11.60;99.90
18305;DHT22;9278;52.156;21.048;2023-04-01T08:11:51;11.70;99.90
18305;DHT22;9278;52.156;21.048;2023-04-01T08:14:54;11.60;99.90
18305;DHT22;9278;52.156;21.048;2023-04-01T08:17:55;11.80;99.90
18305;DHT22;9278;52.156;21.048;2023-04-01T08:20:29;11.90;99.90
18305;DHT22;9278;52.156;21.048;2023-04-01T08:23:06;11.50;99.90
18305;DHT22;9278;52.156;21.048;2023-04-01T08:25:46;11.10;99.90
18305;DHT22;9278;52.156;21.048;2023-04-01T08:28:21;10.80;99.90
18305;DHT22;9278;52.156;21.048;2023-04-01T08:30:55;11.00;99.90
18305;DHT22;9278;52.156;21.048;2023-04-01T08:33:26;11.30;99.90
18305;DHT22;9278;52.156;21.048;2023-04-01T08:36:06;11.30;99.90
18305;DHT22;9278;52.156;21.048;2023-04-01T08:38:40;11.70;99.90
18305;DHT22;9278;52.156;21.048;2023-04-01T08:41:26;11.90;99.90
18305;DHT22;9278;52.156;21.048;2023-04-01T08:44:46;11.50;99.90
18305;DHT22;9278;52.156;21.048;2023-04-01T08:47:47;11.20;99.90
18305;DHT22;9278;52.156;21.048;2023-04-01T08:50:49;11.30;99.90
18305;DHT22;9278;52.156;21.048;2023-04-01T08:53:42;11.20;99.90
18305;DHT22;9278;52.156;21.048;2023-04-01T08:56:18;11.10;99.90
18305;DHT22;9278;52.156;21.048;2023-04-01T08:59:13;11.00;99.90
18305;DHT22;9278;52.156;21.048;2023-04-01T09:02:05;10.90;99.90
18305;DHT22;9278;52.156;21.048;2023-04-01T09:05:18;10.60;99.90
18305;DHT22;9278;52.156;21.048;2023-04-01T09:07:57;10.60;99.90
18305;DHT22;9278;52.156;21.048;2023-04-01T09:10:42;10.50;99.90
18305;DHT22;9278;52.156;21.048;2023-04-01T09:20:39;10.80;99.90
18305;DHT22;9278;52.156;21.048;2023-04-01T09:23:38;10.80;99.90
18305;DHT22;9278;52.156;21.048;2023-04-01T09:26:22;11.20;99.90
18305;DHT22;9278;52.156;21.048;2023-04-01T09:29:02;11.10;99.90
18305;DHT22;9278;52.156;21.048;2023-04-01T09:31:52;10.90;99.90
18305;DHT22;9278;52.156;21.048;2023-04-01T09:34:52;10.80;99.90
18305;DHT22;9278;52.156;21.048;2023-04-01T09:37:34;10.80;99.90
18305;DHT22;9278;52.156;21.048;2023-04-01T09:40:16;10.90;99.90
18305;DHT22;9278;52.156;21.048;2023-04-01T09:43:16;11.00;99.90
18305;DHT22;9278;52.156;21.048;2023-04-01T09:51:54;10.90;99.90
18305;DHT22;9278;52.156;21.048;2023-04-01T09:54:41;10.50;99.90
18305;DHT22;9278;52.156;21.048;2023-04-01T09:57:41;10.10;99.90
18305;DHT22;9278;52.156;21.048;2023-04-01T10:04:09;10.20;99.90
18305;DHT22;9278;52.156;21.048;2023-04-01T10:07:16;10.20;99.90
18305;DHT22;9278;52.156;21.048;2023-04-01T10:10:19;9.90;99.90
18305;DHT22;9278;52.156;21.048;2023-04-01T10:16:27;10.60;99.90
18305;DHT22;9278;52.156;21.048;2023-04-01T10:22:49;10.60;99.90
18305;DHT22;9278;52.156;21.048;2023-04-01T10:25:42;10.90;99.90
18305;DHT22;9278;52.156;21.048;2023-04-01T10:28:41;10.70;99.90
18305;DHT22;9278;52.156;21.048;2023-04-01T10:32:18;11.20;99.90
18305;DHT22;9278;52.156;21.048;2023-04-01T10:38:22;12.50;99.90
18305;DHT22;9278;52.156;21.048;2023-04-01T10:44:49;13.30;99.90
18305;DHT22;9278;52.156;21.048;2023-04-01T10:47:58;13.60;99.90
18305;DHT22;9278;52.156;21.048;2023-04-01T10:54:05;13.30;99.90
18305;DHT22;9278;52.156;21.048;2023-04-01T10:57:19;13.50;99.90
18305;DHT22;9278;52.156;21.048;2023-04-01T11:00:38;13.80;99.90
18305;DHT22;9278;52.156;21.048;2023-04-01T11:07:27;13.00;99.90
18305;DHT22;9278;52.156;21.048;2023-04-01T11:13:38;12.30;99.90
18305;DHT22;9278;52.156;21.048;2023-04-01T11:16:51;12.30;99.90
18305;DHT22;9278;52.156;21.048;2023-04-01T11:19:53;12.60;99.90
18305;DHT22;9278;52.156;21.048;2023-04-01T11:25:34;13.10;99.90
18305;DHT22;9278;52.156;21.048;2023-04-01T11:28:53;13.60;99.90
18305;DHT22;9278;52.156;21.048;2023-04-01T11:31:33;13.90;99.90
18305;DHT22;9278;52.156;21.048;2023-04-01T11:34:13;13.60;99.90
18305;DHT22;9278;52.156;21.048;2023-04-01T11:36:53;13.90;99.90
18305;DHT22;9278;52.156;21.048;2023-04-01T11:39:36;13.60;99.90
18305;DHT22;9278;52.156;21.048;2023-04-01T11:42:35;13.80;99.90
18305;DHT22;9278;52.156;21.048;2023-04-01T11:45:51;13.70;99.90
18305;DHT22;9278;52.156;21.048;2023-04-01T11:48:52;13.60;99.90
18305;DHT22;9278;52.156;21.048;2023-04-01T11:51:52;13.30;99.90
18305;DHT22;9278;52.156;21.048;2023-04-01T11:54:35;12.30;99.90
18305;DHT22;9278;52.156;21.048;2023-04-01T11:57:16;12.80;99.90
18305;DHT22;9278;52.156;21.048;2023-04-01T11:59:58;13.10;99.90
18305;DHT22;9278;52.156;21.048;2023-04-01T12:02:34;13.30;99.90
18305;DHT22;9278;52.156;21.048;2023-04-01T12:05:29;13.70;99.90
18305;DHT22;9278;52.156;21.048;2023-04-01T12:08:09;13.90;99.90
18305;DHT22;9278;52.156;21.048;2023-04-01T12:10:42;14.20;99.90
18305;DHT22;9278;52.156;21.048;2023-04-01T12:13:26;13.90;99.90
18305;DHT22;9278;52.156;21.048;2023-04-01T12:16:13;13.50;99.90
18305;DHT22;9278;52.156;21.048;2023-04-01T12:18:51;13.80;99.90
18305;DHT22;9278;52.156;21.048;2023-04-01T12:21:25;14.00;99.90
18305;DHT22;9278;52.156;21.048;2023-04-01T12:24:33;14.00;99.90
18305;DHT22;9278;52.156;21.048;2023-04-01T12:33:10;14.00;99.90
18305;DHT22;9278;52.156;21.048;2023-04-01T12:35:55;13.70;99.90
18305;DHT22;9278;52.156;21.048;2023-04-01T12:38:35;14.30;99.90
18305;DHT22;9278;52.156;21.048;2023-04-01T12:41:09;14.10;99.90
18305;DHT22;9278;52.156;21.048;2023-04-01T12:47:05;14.90;99.90
18305;DHT22;9278;52.156;21.048;2023-04-01T12:50:09;15.40;99.90
18305;DHT22;9278;52.156;21.048;2023-04-01T12:52:54;15.30;99.90
18305;DHT22;9278;52.156;21.048;2023-04-01T12:55:36;15.40;99.90
18305;DHT22;9278;52.156;21.048;2023-04-01T13:01:52;15.40;99.90
18305;DHT22;9278;52.156;21.048;2023-04-01T13:10:25;14.70;99.90
18305;DHT22;9278;52.156;21.048;2023-04-01T13:13:18;14.80;99.90
18305;DHT22;9278;52.156;21.048;2023-04-01T13:15:51;14.10;99.90
18305;DHT22;9278;52.156;21.048;2023-04-01T13:18:28;14.40;99.90
18305;DHT22;9278;52.156;21.048;2023-04-01T13:21:05;15.60;99.90
18305;DHT22;9278;52.156;21.048;2023-04-01T13:23:46;16.00;99.90
18305;DHT22;9278;52.156;21.048;2023-04-01T13:26:24;15.10;99.90
18305;DHT22;9278;52.156;21.048;2023-04-01T13:28:59;15.40;99.90
18305;DHT22;9278;52.156;21.048;2023-04-01T13:31:42;15.10;99.90
18305;DHT22;9278;52.156;21.048;2023-04-01T13:34:22;15.40;99.90
18305;DHT22;9278;52.156;21.048;2023-04-01T13:36:59;15.40;99.90
18305;DHT22;9278;52.156;21.048;2023-04-01T13:39:42;14.60;99.90
18305;DHT22;9278;52.156;21.048;2023-04-01T13:42:21;13.80;99.90
18305;DHT22;9278;52.156;21.048;2023-04-01T13:44:54;16.10;99.90
18305;DHT22;9278;52.156;21.048;2023-04-01T13:47:36;12.80;99.90
18305;DHT22;9278;52.156;21.048;2023-04-01T13:50:31;12.40;99.90
18305;DHT22;9278;52.156;21.048;2023-04-01T13:56:19;12.10;99.90
18305;DHT22;9278;52.156;21.048;2023-04-01T14:02:07;10.80;99.90
18305;DHT22;9278;52.156;21.048;2023-04-01T14:04:50;11.30;99.90
18305;DHT22;9278;52.156;21.048;2023-04-01T14:07:38;11.20;99.90
18305;DHT22;9278;52.156;21.048;2023-04-01T14:10:23;11.10;99.90
18305;DHT22;9278;52.156;21.048;2023-04-01T14:13:00;11.20;99.90
18305;DHT22;9278;52.156;21.048;2023-04-01T14:18:42;11.80;99.90
18305;DHT22;9278;52.156;21.048;2023-04-01T14:21:24;11.70;99.90
18305;DHT22;9278;52.156;21.048;2023-04-01T14:24:07;11.90;99.90
18305;DHT22;9278;52.156;21.048;2023-04-01T14:29:51;12.20;99.90
18305;DHT22;9278;52.156;21.048;2023-04-01T14:32:30;12.20;99.90
18305;DHT22;9278;52.156;21.048;2023-04-01T14:35:18;12.10;99.90
18305;DHT22;9278;52.156;21.048;2023-04-01T14:38:02;12.20;99.90
18305;DHT22;9278;52.156;21.048;2023-04-01T14:40:48;11.80;99.90
18305;DHT22;9278;52.156;21.048;2023-04-01T14:43:47;12.10;99.90
18305;DHT22;9278;52.156;21.048;2023-04-01T14:49:36;11.30;99.90
18305;DHT22;9278;52.156;21.048;2023-04-01T14:52:13;11.60;99.90
18305;DHT22;9278;52.156;21.048;2023-04-01T14:54:44;11.50;99.90
18305;DHT22;9278;52.156;21.048;2023-04-01T14:57:15;11.60;99.90
18305;DHT22;9278;52.156;21.048;2023-04-01T14:59:51;11.30;99.90
18305;DHT22;9278;52.156;21.048;2023-04-01T15:02:36;11.20;99.90
18305;DHT22;9278;52.156;21.048;2023-04-01T15:05:15;11.20;99.90
18305;DHT22;9278;52.156;21.048;2023-04-01T15:08:11;11.40;99.90
18305;DHT22;9278;52.156;21.048;2023-04-01T15:10:49;10.90;99.90
18305;DHT22;9278;52.156;21.048;2023-04-01T15:13:39;11.10;99.90
18305;DHT22;9278;52.156;21.048;2023-04-01T15:16:20;11.00;99.90
18305;DHT22;9278;52.156;21.048;2023-04-01T15:19:00;10.80;99.90
18305;DHT22;9278;52.156;21.048;2023-04-01T15:21:45;10.60;99.90
18305;DHT22;9278;52.156;21.048;2023-04-01T15:24:21;10.60;99.90
18305;DHT22;9278;52.156;21.048;2023-04-01T15:27:07;10.40;99.90
18305;DHT22;9278;52.156;21.048;2023-04-01T15:30:00;10.40;99.90
18305;DHT22;9278;52.156;21.048;2023-04-01T15:32:43;10.50;99.90
18305;DHT22;9278;52.156;21.048;2023-04-01T15:35:21;10.30;99.90
18305;DHT22;9278;52.156;21.048;2023-04-01T15:37:54;10.10;99.90
18305;DHT22;9278;52.156;21.048;2023-04-01T15:40:29;10.20;99.90
18305;DHT22;9278;52.156;21.048;2023-04-01T15:43:09;10.40;99.90
18305;DHT22;9278;52.156;21.048;2023-04-01T15:45:49;10.00;99.90
18305;DHT22;9278;52.156;21.048;2023-04-01T15:48:33;9.80;99.90
18305;DHT22;9278;52.156;21.048;2023-04-01T15:51:13;9.80;99.90
18305;DHT22;9278;52.156;21.048;2023-04-01T15:54:21;9.80;99.90
18305;DHT22;9278;52.156;21.048;2023-04-01T15:57:11;9.80;99.90
18305;DHT22;9278;52.156;21.048;2023-04-01T16:00:09;9.70;99.90
18305;DHT22;9278;52.156;21.048;2023-04-01T16:02:46;9.50;99.90
18305;DHT22;9278;52.156;21.048;2023-04-01T16:05:31;9.60;99.90
18305;DHT22;9278;52.156;21.048;2023-04-01T16:08:12;9.30;99.90
18305;DHT22;9278;52.156;21.048;2023-04-01T16:10:56;9.70;99.90
18305;DHT22;9278;52.156;21.048;2023-04-01T16:16:29;9.60;99.90
18305;DHT22;9278;52.156;21.048;2023-04-01T16:19:20;9.40;99.90
18305;DHT22;9278;52.156;21.048;2023-04-01T16:21:59;9.50;99.90
18305;DHT22;9278;52.156;21.048;2023-04-01T16:24:34;9.50;99.90
18305;DHT22;9278;52.156;21.048;2023-04-01T16:27:12;9.60;99.90
18305;DHT22;9278;52.156;21.048;2023-04-01T16:29:48;9.60;99.90
18305;DHT22;9278;52.156;21.048;2023-04-01T16:32:40;9.50;99.90
18305;DHT22;9278;52.156;21.048;2023-04-01T16:35:23;9.60;99.90
18305;DHT22;9278;52.156;21.048;2023-04-01T16:38:00;9.50;99.90
18305;DHT22;9278;52.156;21.048;2023-04-01T16:40:43;9.40;99.90
18305;DHT22;9278;52.156;21.048;2023-04-01T16:43:19;9.40;99.90
18305;DHT22;9278;52.156;21.048;2023-04-01T16:46:08;9.30;99.90
18305;DHT22;9278;52.156;21.048;2023-04-01T16:48:52;9.40;99.90
18305;DHT22;9278;52.156;21.048;2023-04-01T16:51:31;9.30;99.90
18305;DHT22;9278;52.156;21.048;2023-04-01T16:54:05;8.90;99.90
18305;DHT22;9278;52.156;21.048;2023-04-01T16:56:40;8.80;99.90
18305;DHT22;9278;52.156;21.048;2023-04-01T16:59:16;8.60;99.90
18305;DHT22;9278;52.156;21.048;2023-04-01T17:01:53;8.70;99.90
18305;DHT22;9278;52.156;21.048;2023-04-01T17:04:29;8.70;99.90
18305;DHT22;9278;52.156;21.048;2023-04-01T17:07:06;8.70;99.90
18305;DHT22;9278;52.156;21.048;2023-04-01T17:09:55;8.80;99.90
18305;DHT22;9278;52.156;21.048;2023-04-01T17:12:32;8.90;99.90
18305;DHT22;9278;52.156;21.048;2023-04-01T17:15:10;8.80;99.90
18305;DHT22;9278;52.156;21.048;2023-04-01T17:17:51;9.00;99.90
18305;DHT22;9278;52.156;21.048;2023-04-01T17:20:32;9.00;99.90
18305;DHT22;9278;52.156;21.048;2023-04-01T17:23:13;8.70;99.90
18305;DHT22;9278;52.156;21.048;2023-04-01T17:25:52;9.00;99.90
18305;DHT22;9278;52.156;21.048;2023-04-01T17:28:34;8.90;99.90
18305;DHT22;9278;52.156;21.048;2023-04-01T17:31:10;9.00;99.90
18305;DHT22;9278;52.156;21.048;2023-04-01T17:33:49;8.90;99.90
18305;DHT22;9278;52.156;21.048;2023-04-01T17:36:45;9.00;99.90
18305;DHT22;9278;52.156;21.048;2023-04-01T17:39:33;8.90;99.90
18305;DHT22;9278;52.156;21.048;2023-04-01T17:42:07;9.00;99.90
18305;DHT22;9278;52.156;21.048;2023-04-01T17:44:47;8.80;99.90
18305;DHT22;9278;52.156;21.048;2023-04-01T17:47:36;9.10;99.90
18305;DHT22;9278;52.156;21.048;2023-04-01T17:50:21;9.00;99.90
18305;DHT22;9278;52.156;21.048;2023-04-01T17:52:58;9.00;99.90
18305;DHT22;9278;52.156;21.048;2023-04-01T17:55:47;9.40;99.90
18305;DHT22;9278;52.156;21.048;2023-04-01T17:58:20;9.20;99.90
18305;DHT22;9278;52.156;21.048;2023-04-01T18:01:07;9.20;99.90
18305;DHT22;9278;52.156;21.048;2023-04-01T18:04:10;9.10;99.90
18305;DHT22;9278;52.156;21.048;2023-04-01T18:07:01;9.00;99.90
18305;DHT22;9278;52.156;21.048;2023-04-01T18:09:39;9.10;99.90
18305;DHT22;9278;52.156;21.048;2023-04-01T18:12:18;9.10;99.90
18305;DHT22;9278;52.156;21.048;2023-04-01T18:15:06;9.00;99.90
18305;DHT22;9278;52.156;21.048;2023-04-01T18:17:45;9.00;99.90
18305;DHT22;9278;52.156;21.048;2023-04-01T18:20:33;9.10;99.90
18305;DHT22;9278;52.156;21.048;2023-04-01T18:23:14;9.10;99.90
18305;DHT22;9278;52.156;21.048;2023-04-01T18:25:52;9.10;99.90
18305;DHT22;9278;52.156;21.048;2023-04-01T18:28:30;9.00;99.90
18305;DHT22;9278;52.156;21.048;2023-04-01T18:31:07;9.00;99.90
18305;DHT22;9278;52.156;21.048;2023-04-01T18:33:44;9.00;99.90
18305;DHT22;9278;52.156;21.048;2023-04-01T18:36:26;9.00;99.90
18305;DHT22;9278;52.156;21.048;2023-04-01T18:39:07;9.00;99.90
18305;DHT22;9278;52.156;21.048;2023-04-01T18:41:47;8.90;99.90
18305;DHT22;9278;52.156;21.048;2023-04-01T18:44:27;8.80;99.90